createdAt,value
2023-03-16T00:00:05.109Z,2.20
2023-03-16T00:02:32.194Z,2.20
2023-03-16T00:04:59.283Z,2.30
2023-03-16T00:07:26.486Z,2.40
2023-03-16T00:09:54.674Z,2.40
2023-03-16T00:12:22.730Z,2.30
2023-03-16T00:14:50.403Z,2.30
2023-03-16T00:17:19.668Z,2.10
2023-03-16T00:19:55.207Z,2.10
2023-03-16T00:22:29.085Z,2.10
2023-03-16T00:24:57.182Z,2.10
2023-03-16T00:27:26.056Z,2.00
2023-03-16T00:29:57.099Z,1.90
2023-03-16T00:32:36.262Z,1.80
2023-03-16T00:35:05.108Z,1.90
2023-03-16T00:37:33.069Z,1.90
2023-03-16T00:40:00.740Z,2.00
2023-03-16T00:42:30.442Z,2.00
2023-03-16T00:44:58.848Z,1.90
2023-03-16T00:47:29.044Z,1.80
2023-03-16T00:49:56.791Z,1.70
2023-03-16T00:52:24.305Z,1.70
2023-03-16T00:54:54.252Z,1.80
2023-03-16T00:57:24.731Z,1.80
2023-03-16T00:59:52.659Z,1.80
2023-03-16T01:02:23.534Z,1.80
2023-03-16T01:04:54.538Z,1.90
2023-03-16T01:07:22.899Z,1.80
2023-03-16T01:09:49.995Z,1.80
2023-03-16T01:12:19.203Z,1.80
2023-03-16T01:14:46.865Z,1.80
2023-03-16T01:17:16.425Z,1.80
2023-03-16T01:19:44.329Z,1.90
2023-03-16T01:22:12.144Z,1.90
2023-03-16T01:24:40.026Z,1.80
2023-03-16T01:27:08.368Z,1.80
2023-03-16T01:29:36.030Z,1.80
2023-03-16T01:32:04.369Z,1.70
2023-03-16T01:34:32.077Z,1.80
2023-03-16T01:36:59.361Z,1.90
2023-03-16T01:39:26.632Z,1.90
2023-03-16T01:41:53.951Z,1.90
2023-03-16T01:44:24.632Z,1.90
2023-03-16T01:46:51.744Z,1.90
2023-03-16T01:49:23.821Z,2.00
2023-03-16T01:52:05.328Z,1.90
2023-03-16T01:54:35.155Z,1.90
2023-03-16T01:57:18.882Z,1.80
2023-03-16T01:59:57.896Z,1.80
2023-03-16T02:02:30.965Z,1.80
2023-03-16T02:05:01.926Z,1.80
2023-03-16T02:07:34.599Z,1.80
2023-03-16T02:10:03.540Z,1.80
2023-03-16T02:12:31.160Z,1.80
2023-03-16T02:14:58.230Z,1.80
2023-03-16T02:17:28.190Z,1.80
2023-03-16T02:20:12.583Z,1.70
2023-03-16T02:22:43.857Z,1.70
2023-03-16T02:25:12.883Z,1.60
2023-03-16T02:27:48.540Z,1.50
2023-03-16T02:30:18.185Z,1.40
2023-03-16T02:32:47.199Z,1.20
2023-03-16T02:35:15.098Z,1.10
2023-03-16T02:37:42.188Z,1.20
2023-03-16T02:40:22.475Z,1.30
2023-03-16T02:43:04.478Z,1.30
2023-03-16T02:45:46.549Z,1.40
2023-03-16T02:48:22.329Z,1.40
2023-03-16T02:51:07.778Z,1.30
2023-03-16T02:53:34.995Z,1.30
2023-03-16T02:56:05.262Z,1.30
2023-03-16T02:58:32.457Z,1.30
2023-03-16T03:00:59.795Z,1.30
2023-03-16T03:03:26.993Z,1.30
2023-03-16T03:05:54.122Z,1.30
2023-03-16T03:08:22.870Z,1.30
2023-03-16T03:10:50.159Z,1.30
2023-03-16T03:13:17.587Z,1.10
2023-03-16T03:15:45.431Z,1.00
2023-03-16T03:18:14.573Z,1.00
2023-03-16T03:20:42.257Z,1.00
2023-03-16T03:23:09.457Z,0.90
2023-03-16T03:25:36.553Z,0.90
2023-03-16T03:28:08.477Z,0.80
2023-03-16T03:30:35.833Z,0.80
2023-03-16T03:33:03.119Z,0.70
2023-03-16T03:35:30.397Z,0.70
2023-03-16T03:37:57.681Z,0.80
2023-03-16T03:40:24.870Z,0.80
2023-03-16T03:42:52.069Z,0.90
2023-03-16T03:45:19.367Z,0.90
2023-03-16T03:47:46.522Z,0.90
2023-03-16T03:50:14.167Z,0.90
2023-03-16T03:52:41.594Z,1.00
2023-03-16T03:55:10.238Z,1.00
2023-03-16T03:57:37.412Z,1.00
2023-03-16T04:00:11.461Z,0.80
2023-03-16T04:02:39.242Z,0.80
2023-03-16T04:05:07.306Z,0.70
2023-03-16T04:07:34.706Z,0.70
2023-03-16T04:10:02.025Z,0.70
2023-03-16T04:12:29.175Z,0.60
2023-03-16T04:14:56.416Z,0.50
2023-03-16T04:17:23.849Z,0.40
2023-03-16T04:19:51.975Z,0.40
2023-03-16T04:22:19.100Z,0.40
2023-03-16T04:24:46.241Z,0.40
2023-03-16T04:27:13.469Z,0.40
2023-03-16T04:29:40.604Z,0.40
2023-03-16T04:32:07.891Z,0.30
2023-03-16T04:34:35.188Z,0.30
2023-03-16T04:37:02.480Z,0.10
2023-03-16T04:39:29.717Z,-0.10
2023-03-16T04:41:56.780Z,-0.20
2023-03-16T04:44:25.920Z,-0.20
2023-03-16T04:46:53.075Z,-0.20
2023-03-16T04:49:20.220Z,-0.10
2023-03-16T04:51:47.377Z,0.00
2023-03-16T04:54:14.502Z,-0.10
2023-03-16T04:56:41.741Z,-0.10
2023-03-16T04:59:08.974Z,-0.10
2023-03-16T05:01:36.087Z,0.30
2023-03-16T05:04:03.220Z,0.00
2023-03-16T05:06:31.145Z,-0.10
2023-03-16T05:09:00.585Z,-0.30
2023-03-16T05:11:28.306Z,-0.30
2023-03-16T05:13:55.430Z,-0.40
2023-03-16T05:16:22.552Z,-0.40
2023-03-16T05:18:49.793Z,-0.40
2023-03-16T05:21:16.964Z,-0.50
2023-03-16T05:23:44.118Z,-0.60
2023-03-16T05:26:13.226Z,-0.70
2023-03-16T05:28:40.317Z,-0.70
2023-03-16T05:31:07.549Z,-0.60
2023-03-16T05:33:34.673Z,-0.60
2023-03-16T05:36:03.052Z,-0.40
2023-03-16T05:38:31.887Z,-0.50
2023-03-16T05:41:03.373Z,-0.40
2023-03-16T05:43:32.485Z,-0.40
2023-03-16T05:45:59.618Z,-0.40
2023-03-16T05:48:26.828Z,-0.20
2023-03-16T05:50:54.110Z,-0.20
2023-03-16T05:53:23.780Z,-0.40
2023-03-16T05:55:54.229Z,-0.40
2023-03-16T05:58:21.354Z,-0.50
2023-03-16T06:00:50.206Z,-0.50
2023-03-16T06:03:17.773Z,-0.50
2023-03-16T06:05:44.917Z,-0.40
2023-03-16T06:08:12.133Z,-0.30
2023-03-16T06:10:39.230Z,-0.20
2023-03-16T06:13:06.339Z,-0.20
2023-03-16T06:15:33.411Z,-0.10
2023-03-16T06:18:00.955Z,-0.10
2023-03-16T06:20:28.396Z,-0.10
2023-03-16T06:22:55.787Z,0.00
2023-03-16T06:25:24.119Z,0.10
2023-03-16T06:27:51.345Z,0.20
2023-03-16T06:30:18.845Z,0.30
2023-03-16T06:32:46.003Z,0.30
2023-03-16T06:35:13.765Z,0.40
2023-03-16T06:37:41.204Z,0.40
2023-03-16T06:40:09.187Z,0.50
2023-03-16T06:42:36.325Z,0.60
2023-03-16T06:45:03.582Z,0.80
2023-03-16T06:47:31.736Z,0.90
2023-03-16T06:49:59.245Z,1.10
2023-03-16T06:52:26.377Z,1.10
2023-03-16T06:54:53.515Z,1.20
2023-03-16T06:57:21.337Z,1.30
2023-03-16T06:59:48.519Z,1.40
2023-03-16T07:02:17.093Z,1.60
2023-03-16T07:04:44.235Z,2.00
2023-03-16T07:07:11.862Z,2.60
2023-03-16T07:09:41.515Z,3.00
2023-03-16T07:12:09.958Z,3.10
2023-03-16T07:14:37.428Z,3.30
2023-03-16T07:17:04.834Z,3.40
2023-03-16T07:19:32.230Z,3.50
2023-03-16T07:21:59.555Z,3.50
2023-03-16T07:24:26.829Z,3.70
2023-03-16T07:26:54.136Z,3.70
2023-03-16T07:29:22.002Z,3.80
2023-03-16T07:31:49.310Z,3.80
2023-03-16T07:34:16.517Z,3.80
2023-03-16T07:36:43.953Z,3.90
2023-03-16T07:39:14.382Z,4.00
2023-03-16T07:41:41.792Z,4.10
2023-03-16T07:44:08.903Z,4.10
2023-03-16T07:46:36.078Z,4.20
2023-03-16T07:49:03.246Z,4.20
2023-03-16T07:51:30.414Z,4.30
2023-03-16T07:53:57.502Z,4.40
2023-03-16T07:56:24.626Z,4.50
2023-03-16T07:58:52.560Z,4.50
2023-03-16T08:01:19.772Z,4.60
2023-03-16T08:03:46.868Z,4.70
2023-03-16T08:06:13.988Z,4.70
2023-03-16T08:08:41.114Z,4.80
2023-03-16T08:11:08.315Z,4.90
2023-03-16T08:13:35.527Z,5.00
2023-03-16T08:16:02.702Z,5.20
2023-03-16T08:18:30.145Z,5.20
2023-03-16T08:20:58.574Z,5.30
2023-03-16T08:23:26.172Z,5.40
2023-03-16T08:25:54.898Z,5.50
2023-03-16T08:28:22.534Z,5.50
2023-03-16T08:30:51.857Z,5.60
2023-03-16T08:33:23.021Z,5.70
2023-03-16T08:35:50.948Z,5.80
2023-03-16T08:38:19.234Z,5.70
2023-03-16T08:40:49.643Z,5.60
2023-03-16T08:43:18.068Z,5.70
2023-03-16T08:45:46.708Z,5.80
2023-03-16T08:48:14.859Z,5.90
2023-03-16T08:50:44.127Z,5.90
2023-03-16T08:53:13.742Z,6.00
2023-03-16T08:55:41.815Z,6.10
2023-03-16T08:58:10.482Z,6.00
2023-03-16T09:00:38.812Z,6.10
2023-03-16T09:03:06.782Z,6.10
2023-03-16T09:05:34.294Z,6.30
2023-03-16T09:08:01.822Z,6.30
2023-03-16T09:10:30.113Z,6.40
2023-03-16T09:12:57.663Z,6.40
2023-03-16T09:15:24.786Z,6.60
2023-03-16T09:17:55.774Z,6.60
2023-03-16T09:20:35.150Z,6.40
2023-03-16T09:23:03.686Z,6.50
2023-03-16T09:25:32.518Z,6.60
2023-03-16T09:28:00.551Z,6.70
2023-03-16T09:30:28.334Z,6.80
2023-03-16T09:32:56.114Z,6.90
2023-03-16T09:35:23.752Z,6.90
2023-03-16T09:38:05.071Z,6.90
2023-03-16T09:40:35.860Z,6.90
2023-03-16T09:43:20.124Z,7.10
2023-03-16T09:46:15.632Z,7.10
2023-03-16T09:48:42.988Z,7.20
2023-03-16T09:51:23.634Z,7.00
2023-03-16T09:53:56.591Z,7.10
2023-03-16T09:56:32.155Z,7.20
2023-03-16T09:58:59.494Z,7.30
2023-03-16T10:01:57.139Z,7.50
2023-03-16T10:04:39.640Z,7.50
2023-03-16T10:07:34.679Z,7.50
2023-03-16T10:10:11.109Z,7.70
2023-03-16T10:12:44.963Z,7.80
2023-03-16T10:15:19.400Z,7.80
2023-03-16T10:18:01.182Z,7.60
2023-03-16T10:20:33.229Z,7.50
2023-03-16T10:23:06.202Z,7.60
2023-03-16T10:25:44.320Z,7.70
2023-03-16T10:28:17.380Z,7.70
2023-03-16T10:30:45.369Z,7.80
2023-03-16T10:33:26.675Z,7.90
2023-03-16T10:36:19.467Z,7.90
2023-03-16T10:38:51.362Z,8.10
2023-03-16T10:41:18.439Z,8.00
2023-03-16T10:43:48.057Z,7.80
2023-03-16T10:46:15.403Z,7.90
2023-03-16T10:48:43.542Z,7.90
2023-03-16T10:51:17.114Z,8.10
2023-03-16T10:53:44.930Z,8.20
2023-03-16T10:56:20.039Z,8.10
2023-03-16T10:58:47.220Z,8.10
2023-03-16T11:01:21.294Z,8.30
2023-03-16T11:03:55.568Z,8.10
2023-03-16T11:06:32.333Z,7.90
2023-03-16T11:09:12.049Z,8.20
2023-03-16T11:11:39.162Z,8.50
2023-03-16T11:14:15.658Z,8.40
2023-03-16T11:17:03.133Z,8.60
2023-03-16T11:19:41.625Z,8.40
2023-03-16T11:22:21.806Z,8.70
2023-03-16T11:25:07.014Z,8.90
2023-03-16T11:27:40.576Z,9.00
2023-03-16T11:30:25.876Z,8.90
2023-03-16T11:32:54.123Z,8.70
2023-03-16T11:35:27.555Z,8.70
2023-03-16T11:38:33.288Z,8.80
2023-03-16T11:41:02.216Z,9.00
2023-03-16T12:07:05.814Z,9.30
2023-03-16T12:10:18.606Z,9.10
2023-03-16T12:13:20.064Z,9.10
2023-03-16T12:15:57.030Z,9.00
2023-03-16T12:18:36.486Z,9.00
2023-03-16T12:21:12.368Z,9.00
2023-03-16T12:23:43.302Z,9.10
2023-03-16T12:26:12.445Z,9.20
2023-03-16T12:28:42.249Z,9.10
2023-03-16T12:31:30.844Z,8.90
2023-03-16T12:33:57.973Z,8.90
2023-03-16T12:36:46.508Z,9.10
2023-03-16T12:39:45.781Z,9.10
2023-03-16T12:42:39.909Z,9.30
2023-03-16T12:45:37.203Z,9.30
2023-03-16T12:48:36.943Z,9.30
2023-03-16T12:51:05.647Z,9.50
2023-03-16T12:53:44.916Z,9.40
2023-03-16T12:56:17.997Z,9.40
2023-03-16T12:58:50.296Z,9.30
2023-03-16T13:01:20.936Z,9.30
2023-03-16T13:03:50.776Z,9.50
2023-03-16T13:06:24.565Z,9.60
2023-03-16T13:08:59.910Z,9.50
2023-03-16T13:11:28.672Z,9.50
2023-03-16T13:14:01.862Z,9.40
2023-03-16T13:16:32.048Z,9.60
2023-03-16T13:18:59.620Z,9.50
2023-03-16T13:21:37.680Z,9.40
2023-03-16T13:24:35.724Z,9.40
2023-03-16T13:27:25.700Z,9.50
2023-03-16T13:29:59.029Z,9.50
2023-03-16T13:32:32.028Z,9.50
2023-03-16T13:35:02.377Z,9.60
2023-03-16T13:37:30.741Z,9.60
2023-03-16T13:40:04.530Z,9.80
2023-03-16T13:42:33.724Z,9.60
2023-03-16T13:45:13.485Z,9.60
2023-03-16T13:47:43.689Z,9.60
2023-03-16T13:50:13.880Z,9.70
2023-03-16T13:52:44.184Z,9.80
2023-03-16T13:55:17.539Z,9.60
2023-03-16T13:57:46.491Z,9.60
2023-03-16T14:00:17.952Z,9.50
2023-03-16T14:02:47.318Z,9.60
2023-03-16T14:05:26.160Z,9.60
2023-03-16T14:07:55.399Z,9.50
2023-03-16T14:10:25.338Z,9.50
2023-03-16T14:13:06.890Z,9.60
2023-03-16T14:15:36.228Z,9.70
2023-03-16T14:18:15.692Z,9.60
2023-03-16T14:20:43.131Z,9.80
2023-03-16T14:23:47.437Z,9.80
2023-03-16T14:26:19.153Z,10.00
2023-03-16T14:28:57.407Z,10.00
2023-03-16T14:31:36.749Z,10.10
2023-03-16T14:34:08.904Z,9.90
2023-03-16T14:36:38.612Z,9.70
2023-03-16T14:39:14.422Z,9.60
2023-03-16T14:41:41.722Z,9.60
2023-03-16T14:44:31.974Z,9.70
2023-03-16T14:47:00.372Z,9.70
2023-03-16T14:49:46.816Z,9.50
2023-03-16T14:52:32.734Z,9.60
2023-03-16T14:55:03.518Z,9.60
2023-03-16T14:57:31.335Z,9.50
2023-03-16T15:00:19.581Z,9.50
2023-03-16T15:03:08.694Z,9.40
2023-03-16T15:05:39.549Z,9.40
2023-03-16T15:08:21.702Z,9.50
2023-03-16T15:10:49.696Z,9.50
2023-03-16T15:13:52.773Z,9.40
2023-03-16T15:16:22.052Z,9.40
2023-03-16T15:18:49.706Z,9.30
2023-03-16T15:21:29.580Z,9.20
2023-03-16T15:23:59.944Z,9.30
2023-03-16T15:26:29.131Z,9.30
2023-03-16T15:28:57.566Z,9.30
2023-03-16T15:31:25.139Z,9.30
2023-03-16T15:33:52.624Z,9.30
2023-03-16T15:36:22.442Z,9.30
2023-03-16T15:38:53.196Z,9.10
2023-03-16T15:41:21.238Z,9.00
2023-03-16T15:43:48.555Z,8.90
2023-03-16T15:46:16.914Z,8.70
2023-03-16T15:48:44.509Z,8.80
2023-03-16T15:51:23.012Z,8.80
2023-03-16T15:54:10.824Z,8.70
2023-03-16T15:56:53.140Z,8.60
2023-03-16T15:59:23.370Z,8.60
2023-03-16T16:01:51.886Z,8.50
2023-03-16T16:04:21.690Z,8.50
2023-03-16T16:06:50.839Z,8.50
2023-03-16T16:09:17.994Z,8.40
2023-03-16T16:11:47.254Z,8.30
2023-03-16T16:14:22.948Z,8.30
2023-03-16T16:16:50.425Z,8.20
2023-03-16T16:19:18.820Z,8.10
2023-03-16T16:21:47.065Z,7.90
2023-03-16T16:24:17.182Z,7.90
2023-03-16T16:26:54.181Z,7.70
2023-03-16T16:29:24.644Z,7.60
2023-03-16T16:31:52.505Z,7.40
2023-03-16T16:34:24.327Z,7.20
2023-03-16T16:36:52.295Z,7.10
2023-03-16T16:39:20.662Z,7.00
2023-03-16T16:41:50.394Z,6.90
2023-03-16T16:44:30.116Z,6.80
2023-03-16T16:46:59.840Z,6.70
2023-03-16T16:49:30.606Z,6.60
2023-03-16T16:51:58.563Z,6.50
2023-03-16T16:54:28.840Z,6.40
2023-03-16T16:56:57.538Z,6.30
2023-03-16T16:59:33.086Z,6.20
2023-03-16T17:02:23.033Z,6.10
2023-03-16T17:04:50.972Z,5.90
2023-03-16T17:07:18.360Z,5.90
2023-03-16T17:09:45.622Z,5.80
2023-03-16T17:12:21.730Z,5.70
2023-03-16T17:14:50.590Z,5.60
2023-03-16T17:17:18.780Z,5.50
2023-03-16T17:19:48.232Z,5.40
2023-03-16T17:22:28.576Z,5.40
2023-03-16T17:24:56.011Z,5.30
2023-03-16T17:27:32.206Z,5.20
2023-03-16T17:29:59.429Z,5.00
2023-03-16T17:32:26.857Z,4.60
2023-03-16T17:34:54.214Z,4.50
2023-03-16T17:37:22.592Z,4.30
2023-03-16T17:39:49.964Z,4.30
2023-03-16T17:42:19.764Z,4.30
2023-03-16T17:44:49.845Z,4.20
2023-03-16T17:47:21.873Z,4.10
2023-03-16T17:49:50.851Z,4.10
2023-03-16T17:52:20.630Z,3.90
2023-03-16T17:54:49.001Z,3.80
2023-03-16T17:57:35.393Z,3.70
2023-03-16T18:00:18.468Z,3.50
2023-03-16T18:02:55.004Z,3.30
2023-03-16T18:05:27.868Z,3.20
2023-03-16T18:07:58.677Z,3.30
2023-03-16T18:10:29.665Z,3.30
2023-03-16T18:13:03.686Z,3.30
2023-03-16T18:15:34.951Z,3.30
2023-03-16T18:18:04.622Z,3.10
2023-03-16T18:20:36.457Z,3.10
2023-03-16T18:23:20.939Z,3.00
2023-03-16T18:25:50.588Z,2.90
2023-03-16T18:28:18.936Z,2.90
2023-03-16T18:30:48.716Z,2.90
2023-03-16T18:33:24.058Z,2.90
2023-03-16T18:35:53.056Z,2.80
2023-03-16T18:38:35.338Z,2.70
2023-03-16T18:41:24.603Z,2.50
2023-03-16T18:43:53.862Z,2.50
2023-03-16T18:46:28.042Z,2.30
2023-03-16T18:48:58.836Z,2.30
2023-03-16T18:51:26.751Z,2.30
2023-03-16T18:53:55.019Z,2.30
2023-03-16T18:56:28.586Z,2.20
2023-03-16T18:58:56.684Z,2.20
2023-03-16T19:01:32.305Z,1.90
2023-03-16T19:04:02.107Z,1.80
2023-03-16T19:06:34.898Z,1.60
2023-03-16T19:09:12.618Z,1.50
2023-03-16T19:11:43.544Z,1.60
2023-03-16T19:14:18.536Z,1.60
2023-03-16T19:16:45.808Z,1.60
2023-03-16T19:19:15.188Z,1.60
2023-03-16T19:21:42.980Z,1.60
2023-03-16T19:24:28.931Z,1.50
2023-03-16T19:26:56.893Z,1.40
2023-03-16T19:29:33.284Z,1.50
2023-03-16T19:32:01.669Z,1.50
2023-03-16T19:34:29.433Z,1.40
2023-03-16T19:36:56.673Z,1.40
2023-03-16T19:39:23.892Z,1.40
2023-03-16T19:41:57.549Z,1.40
2023-03-16T19:44:27.393Z,1.50
2023-03-16T19:46:55.143Z,1.40
2023-03-16T19:49:25.939Z,1.30
2023-03-16T19:51:55.255Z,1.20
2023-03-16T19:54:27.140Z,1.10
2023-03-16T19:56:56.297Z,0.70
2023-03-16T19:59:27.943Z,0.50
2023-03-16T20:01:55.155Z,0.60
2023-03-16T20:04:24.125Z,0.60
2023-03-16T20:06:51.725Z,0.60
2023-03-16T20:09:19.001Z,0.70
2023-03-16T20:11:47.936Z,0.70
2023-03-16T20:14:31.463Z,0.70
2023-03-16T20:16:59.568Z,0.60
2023-03-16T20:19:26.781Z,0.60
2023-03-16T20:21:54.011Z,0.60
2023-03-16T20:24:22.294Z,0.70
2023-03-16T20:26:51.368Z,0.60
2023-03-16T20:29:28.503Z,0.40
2023-03-16T20:31:56.120Z,0.30
2023-03-16T20:34:29.522Z,0.00
2023-03-16T20:36:57.829Z,-0.20
2023-03-16T20:39:25.627Z,-0.40
2023-03-16T20:41:53.118Z,-0.30
2023-03-16T20:44:23.677Z,-0.20
2023-03-16T20:46:51.091Z,-0.10
2023-03-16T20:49:25.395Z,0.10
2023-03-16T20:51:53.279Z,0.20
2023-03-16T20:54:20.969Z,0.20
2023-03-16T20:56:48.539Z,0.20
2023-03-16T20:59:23.652Z,0.10
2023-03-16T21:01:54.662Z,0.10
2023-03-16T21:04:27.970Z,-0.10
2023-03-16T21:06:56.900Z,-0.10
2023-03-16T21:09:24.251Z,0.00
2023-03-16T21:11:52.210Z,0.20
2023-03-16T21:14:23.071Z,0.30
2023-03-16T21:16:51.020Z,0.40
2023-03-16T21:19:21.257Z,0.50
2023-03-16T21:21:48.954Z,0.50
2023-03-16T21:24:16.647Z,0.40
2023-03-16T21:26:45.113Z,0.40
2023-03-16T21:29:17.042Z,0.20
2023-03-16T21:31:44.434Z,0.10
2023-03-16T21:34:30.964Z,0.00
2023-03-16T21:36:59.394Z,0.10
2023-03-16T21:39:26.811Z,-0.10
2023-03-16T21:41:54.069Z,-0.20
2023-03-16T21:44:21.506Z,-0.20
2023-03-16T21:46:48.905Z,-0.20
2023-03-16T21:49:16.488Z,-0.20
2023-03-16T21:51:44.097Z,-0.30
2023-03-16T21:54:15.774Z,-0.50
2023-03-16T21:56:43.922Z,-0.40
2023-03-16T21:59:11.761Z,-0.40
2023-03-16T22:01:54.330Z,-0.40
2023-03-16T22:04:27.800Z,-0.30
2023-03-16T22:06:55.291Z,-0.30
2023-03-16T22:09:22.861Z,-0.30
2023-03-16T22:11:50.825Z,-0.40
2023-03-16T22:14:18.322Z,-0.50
2023-03-16T22:16:45.962Z,-0.60
2023-03-16T22:19:18.176Z,-0.60
2023-03-16T22:21:47.168Z,-0.60
2023-03-16T22:24:21.093Z,-0.50
2023-03-16T22:26:50.095Z,-0.50
2023-03-16T22:29:33.534Z,-0.50
2023-03-16T22:32:04.509Z,-0.50
2023-03-16T22:34:37.597Z,-0.40
2023-03-16T22:37:05.657Z,-0.40
2023-03-16T22:39:37.763Z,-0.50
2023-03-16T22:42:30.419Z,-0.50
2023-03-16T22:44:57.810Z,-0.40
2023-03-16T22:47:32.628Z,-0.40
2023-03-16T22:50:00.244Z,-0.40
2023-03-16T22:52:30.728Z,-0.50
2023-03-16T22:55:00.191Z,-0.50
2023-03-16T22:57:29.320Z,-0.60
2023-03-16T22:59:57.127Z,-0.80
2023-03-16T23:02:26.234Z,-0.90
2023-03-16T23:04:53.529Z,-1.00
2023-03-16T23:07:20.707Z,-1.00
2023-03-16T23:09:48.567Z,-1.00
2023-03-16T23:12:21.676Z,-0.90
2023-03-16T23:14:49.443Z,-0.80
2023-03-16T23:17:22.442Z,-0.80
2023-03-16T23:19:49.710Z,-0.80
2023-03-16T23:22:17.044Z,-0.80
2023-03-16T23:24:44.247Z,-0.70
2023-03-16T23:27:17.755Z,-0.70
2023-03-16T23:29:45.212Z,-0.70
2023-03-16T23:32:13.343Z,-0.80
2023-03-16T23:34:40.603Z,-0.70
2023-03-16T23:37:08.616Z,-0.60
2023-03-16T23:39:36.466Z,-0.60
2023-03-16T23:42:04.583Z,-0.60
2023-03-16T23:44:31.772Z,-0.60
2023-03-16T23:46:59.899Z,-0.60
2023-03-16T23:49:33.567Z,-0.60
2023-03-16T23:52:01.896Z,-0.60
2023-03-16T23:54:31.689Z,-0.70
2023-03-16T23:56:58.995Z,-0.80
2023-03-16T23:59:27.844Z,-0.90
